In Rescue
 
Open Full Screen Window  High Contrast Mode
Wind Gusting 00 knots
07
January 17, 2021 12:58 PM CST
Weather Information
Wind Direction
  320 °
Wind Speed
  07 kt (8 mph)
Wind Gust
  00 kt (0 mph)
Altimeter
29.79 in
Visibility
7 SM
Temperature
-04° C
25° F
Dewpoint
-06° C
21° F
Humidity
86%
1hr Rain Fall
00.00 in.
24hr Rain Fall
00.00 in.
Sky Condition
Overcast @ 700 ft
IFR

METAR KACQ 171858Z AUTO 32007KT 7SM OVC007 M04/M06 A2979 RMK AO2

FAA Disclaimer: The data displayed is for advisory purposes only and is not to be used for flight planning or operations.